Meteo Giornale » Osservazioni meteo Moldavia » Chisinau

ore: 22:00 - Osservazioni Meteo Chisinau
Lat. 46° 55' N Lon. 28° 55' E Alt. 122 metri s.l.m.

sereno

20 °C

Sereno

Temp. 24 Ore

13 °C

31 °C

Nord-Ovest

7.4 Km/h

Dew point 16 °C

Umidità 77 %

Visibilità  10 Km

Il sole sorge alle ore 06:23

Il sole tramonta alle ore 19:44

Data e Ora Cielo e Fenomeni T °C DP °C Um. % Pres. hPa Vis. km Vento km/h
Oggi h: 22:00 sereno Sereno 20 16 77 1017 10 NO 7.4
Oggi h: 21:30 sereno Sereno 21 16 73 1017 10 NO 11.1
Oggi h: 21:00 sereno Sereno 22 15 64 1017 10 N/NO 7.4
Oggi h: 20:30 sereno Sereno 23 15 60 1017 10 N/NO 9.3
Oggi h: 20:00 sereno Sereno 24 15 57 1016 10 N/NO 7.4
Oggi h: 19:30 sereno Sereno 25 14 50 1016 10 N 16.7
Oggi h: 19:00 poco_nuvoloso Poco Nuvoloso 26 14 47 1016 10 N/NO 18.5
Oggi h: 18:30 sereno Sereno 27 8 30 1016 10 O/NO 11.1
Oggi h: 18:00 sereno Sereno 28 8 28 1016 10 O 7.4
Oggi h: 17:30 sereno Sereno 28 7 26 1015 10 O/NO 7.4
Oggi h: 17:00 sereno Sereno 29 6 23 1015 10 NO 9.3
Oggi h: 16:30 sereno Sereno 30 6 22 1015 10 O 9.3
Oggi h: 16:00 sereno Sereno 31 5 19 1016 10 O 9.3
Oggi h: 15:30 sereno Sereno 29 5 21 1016 10 O/SO 11.1
Oggi h: 15:00 poco_nuvoloso Poco Nuvoloso 30 4 19 1016 10 O/SO 13
Oggi h: 14:30 poco_nuvoloso Poco Nuvoloso 30 4 19 1016 10 SO 22.2
Oggi h: 14:00 poco_nuvoloso Poco Nuvoloso 30 4 19 1016 10 SO 20.3
Oggi h: 13:30 sereno Sereno 29 4 20 1016 10 S/SO 20.3
Oggi h: 13:00 sereno Sereno 31 5 19 1016 10 S/SO 22.2
Oggi h: 12:30 sereno Sereno 30 5 20 1016 10 SO 22.2
Oggi h: 12:00 sereno Sereno 30 6 22 1016 10 S/SO 22.2
Oggi h: 11:30 sereno Sereno 29 7 25 1016 10 S/SO 24
Oggi h: 11:00 sereno Sereno 28 7 26 1017 10 S/SO 20.3
Oggi h: 10:30 sereno Sereno 25 7 31 1017 10 S/SO 13
Oggi h: 10:00 sereno Sereno 26 7 29 1017 10 SO 11.1
Oggi h: 09:30 sereno Sereno 24 8 35 1017 10 SO 9.3
Oggi h: 09:00 sereno Sereno 22 10 46 1017 10 S/SO 11.1
Oggi h: 08:30 sereno Sereno 20 9 49 1017 10 N 3.7
Oggi h: 08:00 sereno Sereno 19 9 52 1017 10 N 1.8
Oggi h: 07:30 sereno Sereno 15 10 72 1017 10 N 3.7
Oggi h: 07:00 sereno Sereno 13 10 81 1016 10 SE 7.4
Oggi h: 06:30 sereno Sereno 16 8 58 1016 10 N 3.7
Oggi h: 06:00 sereno Sereno 16 7 55 1016 10 SO 7.4
Oggi h: 05:30 sereno Sereno 17 7 51 1016 10 N 3.7
Oggi h: 05:00 sereno Sereno 15 9 67 1016 10 N 5.5
Oggi h: 04:30 sereno Sereno 16 9 63 1016 10 N 5.5
Oggi h: 04:00 sereno Sereno 16 8 58 1017 10 N 3.7
Oggi h: 03:30 sereno Sereno 17 8 55 1017 10 N 1.8
Oggi h: 03:00 sereno Sereno 18 8 51 1017 10 N 0
Oggi h: 02:30 sereno Sereno 19 8 48 1017 10 N 3.7
Oggi h: 02:00 sereno Sereno 19 8 48 1017 10 N 5.5
Oggi h: 01:30 sereno Sereno 19 8 48 1017 10 N 3.7
Oggi h: 01:00 sereno Sereno 19 8 48 1017 10 O/SO 7.4
Oggi h: 00:30 sereno Sereno 20 8 45 1017 10 SO 11.1
Oggi h: 00:00 sereno Sereno 21 8 43 1017 10 SO 11.1
Ieri h: 23:30 sereno Sereno 19 8 48 1017 10 S/SO 9.3
Ieri h: 23:00 sereno Sereno 22 8 40 1017 10 S/SO 11.1